createdAt,value
2023-01-04T00:02:14.334Z,100116.78
2023-01-04T00:05:30.562Z,100115.21
2023-01-04T00:08:46.885Z,100113.64
2023-01-04T00:12:03.952Z,100111.45
2023-01-04T00:15:21.148Z,100116.19
2023-01-04T00:18:37.661Z,100116.73
2023-01-04T00:21:54.010Z,100111.28
2023-01-04T00:25:10.787Z,100103.08
2023-01-04T00:28:27.327Z,100107.41
2023-01-04T00:31:45.497Z,100118.41
2023-01-04T00:35:04.066Z,100116.11
2023-01-04T00:38:20.134Z,100121.13
2023-01-04T00:41:58.209Z,100114.31
2023-01-04T00:44:54.120Z,100117.28
2023-01-04T00:48:10.478Z,100113.39
2023-01-04T00:51:26.562Z,100105.81
2023-01-04T00:54:43.328Z,100104.66
2023-01-04T00:57:59.635Z,100101.21
2023-01-04T01:01:17.998Z,100097.02
2023-01-04T01:04:35.617Z,100108.11
2023-01-04T01:07:54.700Z,100104.96
2023-01-04T01:11:15.972Z,100106.83
2023-01-04T01:14:33.326Z,100092.14
2023-01-04T01:17:49.666Z,100099.36
2023-01-04T01:21:05.923Z,100091.27
2023-01-04T01:24:26.928Z,100089.84
2023-01-04T01:27:43.104Z,100088.02
2023-01-04T01:31:05.074Z,100090.86
2023-01-04T01:34:18.377Z,100081.06
2023-01-04T01:37:34.664Z,100082.70
2023-01-04T01:40:52.756Z,100087.67
2023-01-04T01:44:12.173Z,100082.94
2023-01-04T01:47:32.201Z,100079.39
2023-01-04T01:50:52.688Z,100081.19
2023-01-04T01:54:12.795Z,100074.92
2023-01-04T01:57:33.165Z,100073.99
2023-01-04T02:00:49.516Z,100085.39
2023-01-04T02:04:06.299Z,100082.98
2023-01-04T02:07:25.571Z,100089.03
2023-01-04T02:10:42.875Z,100086.89
2023-01-04T02:14:13.627Z,100094.28
2023-01-04T02:17:39.200Z,100098.93
2023-01-04T02:21:00.101Z,100094.92
2023-01-04T02:24:42.470Z,100089.80
2023-01-04T02:28:04.070Z,100091.02
2023-01-04T02:31:35.644Z,100091.56
2023-01-04T02:34:59.114Z,100092.89
2023-01-04T02:38:21.139Z,100076.70
2023-01-04T02:41:42.414Z,100068.38
2023-01-04T02:45:05.244Z,100076.06
2023-01-04T02:48:35.711Z,100066.97
2023-01-04T02:51:52.065Z,100071.83
2023-01-04T02:55:10.305Z,100061.94
2023-01-04T02:58:40.888Z,100066.86
2023-01-04T03:02:16.778Z,100056.59
2023-01-04T03:05:54.391Z,100046.61
2023-01-04T03:09:14.865Z,100043.34
2023-01-04T03:12:37.392Z,100039.05
2023-01-04T03:15:57.327Z,100038.56
2023-01-04T03:19:14.938Z,100022.30
2023-01-04T03:22:52.329Z,100027.54
2023-01-04T03:26:25.902Z,100024.75
2023-01-04T03:30:00.692Z,100013.84
2023-01-04T03:33:32.599Z,100016.55
2023-01-04T03:37:17.686Z,100015.04
2023-01-04T03:40:57.455Z,100008.41
2023-01-04T03:44:32.010Z,100020.27
2023-01-04T03:48:08.422Z,100026.25
2023-01-04T03:51:28.038Z,100028.47
2023-01-04T03:54:48.749Z,100020.26
2023-01-04T03:58:06.116Z,100014.64
2023-01-04T04:01:23.000Z,100019.20
2023-01-04T04:04:53.474Z,100016.94
2023-01-04T04:08:23.671Z,100011.98
2023-01-04T04:11:40.181Z,100021.81
2023-01-04T04:14:56.362Z,100020.03
2023-01-04T04:18:12.739Z,100009.21
2023-01-04T04:21:28.815Z,100020.48
2023-01-04T04:24:45.158Z,100015.97
2023-01-04T04:28:01.526Z,100002.34
2023-01-04T04:31:18.539Z,100007.34
2023-01-04T04:34:34.700Z,100000.43
2023-01-04T04:37:50.971Z,99999.25
2023-01-04T04:41:23.045Z,99997.37
2023-01-04T04:44:41.128Z,100003.36
2023-01-04T04:47:57.259Z,100004.19
2023-01-04T04:51:13.983Z,100009.41
2023-01-04T04:54:31.010Z,100000.63
2023-01-04T04:57:47.262Z,99995.46
2023-01-04T05:01:03.522Z,99989.16
2023-01-04T05:04:20.290Z,99981.58
2023-01-04T05:07:37.089Z,99976.91
2023-01-04T05:10:53.543Z,99965.22
2023-01-04T05:14:09.882Z,99975.05
2023-01-04T05:17:25.918Z,99965.39
2023-01-04T05:20:42.795Z,99957.98
2023-01-04T05:23:58.905Z,99944.84
2023-01-04T05:27:15.099Z,99943.91
2023-01-04T05:30:44.927Z,99935.64
2023-01-04T05:34:01.186Z,99930.83
2023-01-04T05:37:17.328Z,99928.06
2023-01-04T05:40:33.955Z,99935.26
2023-01-04T05:43:50.083Z,99926.25
2023-01-04T05:47:09.674Z,99928.61
2023-01-04T05:50:24.999Z,99919.75
2023-01-04T05:53:41.085Z,99926.09
2023-01-04T05:56:57.292Z,99923.83
2023-01-04T06:00:16.411Z,99929.78
2023-01-04T06:03:32.646Z,99921.60
2023-01-04T06:06:48.986Z,99936.36
2023-01-04T06:10:05.414Z,99916.95
2023-01-04T06:13:21.718Z,99922.41
2023-01-04T06:16:38.310Z,99917.04
2023-01-04T06:19:54.861Z,99916.36
2023-01-04T06:23:11.217Z,99923.86
2023-01-04T06:26:27.848Z,99922.94
2023-01-04T06:29:44.157Z,99925.80
2023-01-04T06:33:00.230Z,99918.98
2023-01-04T06:36:19.809Z,99920.48
2023-01-04T06:39:35.413Z,99910.05
2023-01-04T06:42:51.499Z,99902.84
2023-01-04T06:46:07.807Z,99899.81
2023-01-04T06:49:23.962Z,99885.17
2023-01-04T06:52:40.164Z,99896.09
2023-01-04T06:55:56.520Z,99896.19
2023-01-04T06:59:12.718Z,99896.86
2023-01-04T07:02:29.166Z,99896.00
2023-01-04T07:05:45.641Z,99898.55
2023-01-04T07:09:02.645Z,99913.76
2023-01-04T07:12:18.856Z,99911.83
2023-01-04T07:15:37.959Z,99916.71
2023-01-04T07:18:53.202Z,99898.98
2023-01-04T07:22:09.406Z,99895.27
2023-01-04T07:25:29.225Z,99891.74
2023-01-04T07:29:02.000Z,99879.03
2023-01-04T07:32:18.600Z,99882.13
2023-01-04T07:35:38.170Z,99876.15
2023-01-04T07:38:52.285Z,99867.05
2023-01-04T07:42:11.429Z,99871.00
2023-01-04T07:45:25.441Z,99868.97
2023-01-04T07:48:42.694Z,99871.67
2023-01-04T07:51:59.475Z,99877.67
2023-01-04T07:55:18.527Z,99879.42
2023-01-04T07:58:40.383Z,99886.66
2023-01-04T08:01:57.577Z,99884.05
2023-01-04T08:05:15.466Z,99868.17
2023-01-04T08:08:31.893Z,99856.86
2023-01-04T08:11:48.816Z,99863.77
2023-01-04T08:15:05.115Z,99856.16
2023-01-04T08:18:21.357Z,99852.52
2023-01-04T08:21:40.130Z,99870.36
2023-01-04T08:24:56.273Z,99867.27
2023-01-04T08:28:13.144Z,99859.59
2023-01-04T08:31:32.688Z,99849.35
2023-01-04T08:34:49.255Z,99852.52
2023-01-04T08:38:38.499Z,99866.89
2023-01-04T08:41:56.111Z,99866.23
2023-01-04T08:44:42.793Z,99877.34
2023-01-04T08:48:09.992Z,99887.27
2023-01-04T08:51:51.177Z,99878.58
2023-01-04T08:55:22.973Z,99876.11
2023-01-04T08:58:36.890Z,99869.52
2023-01-04T09:01:53.916Z,99863.95
2023-01-04T09:05:22.748Z,99864.09
2023-01-04T09:08:34.791Z,99862.05
2023-01-04T09:11:51.375Z,99855.23
2023-01-04T09:15:09.325Z,99847.39
2023-01-04T09:18:33.314Z,99844.13
2023-01-04T09:21:44.017Z,99839.28
2023-01-04T09:25:00.443Z,99827.06
2023-01-04T09:28:16.626Z,99823.17
2023-01-04T09:31:35.069Z,99812.73
2023-01-04T09:34:51.463Z,99804.45
2023-01-04T09:38:07.832Z,99804.02
2023-01-04T09:41:32.272Z,99794.76
2023-01-04T09:48:25.000Z,99782.63
2023-01-04T09:51:41.954Z,99783.56
2023-01-04T09:55:37.059Z,99769.78
2023-01-04T09:58:32.318Z,99759.95
2023-01-04T10:01:57.138Z,99746.53
2023-01-04T10:05:19.185Z,99740.37
2023-01-04T10:08:36.704Z,99726.70
2023-01-04T10:12:19.668Z,99723.27
2023-01-04T10:15:41.737Z,99717.16
2023-01-04T10:19:50.379Z,99705.75
2023-01-04T10:22:26.264Z,99690.81
2023-01-04T10:25:48.234Z,99688.95
2023-01-04T10:29:29.175Z,99683.44
2023-01-04T10:32:49.872Z,99674.04
2023-01-04T10:36:06.653Z,99677.95
2023-01-04T10:39:32.475Z,99655.38
2023-01-04T10:42:50.337Z,99659.45
2023-01-04T10:46:13.023Z,99651.94
2023-01-04T10:49:34.287Z,99645.64
2023-01-04T10:52:56.223Z,99639.78
2023-01-04T10:56:24.983Z,99628.92
2023-01-04T10:59:41.582Z,99629.56
2023-01-04T11:03:08.523Z,99631.20
2023-01-04T11:06:26.129Z,99619.62
2023-01-04T11:09:48.233Z,99615.84
2023-01-04T11:13:04.719Z,99602.33
2023-01-04T11:16:21.352Z,99591.75
2023-01-04T11:19:37.926Z,99583.28
2023-01-04T11:22:58.621Z,99577.95
2023-01-04T11:26:24.542Z,99559.82
2023-01-04T11:29:46.388Z,99552.17
2023-01-04T11:33:08.356Z,99536.84
2023-01-04T11:36:48.124Z,99540.53
2023-01-04T11:40:30.941Z,99528.69
2023-01-04T11:43:48.261Z,99531.02
2023-01-04T11:47:26.713Z,99519.75
2023-01-04T11:50:52.103Z,99519.91
2023-01-04T11:54:11.527Z,99512.45
2023-01-04T11:57:27.338Z,99501.34
2023-01-04T12:00:43.958Z,99502.16
2023-01-04T12:04:00.604Z,99502.84
2023-01-04T12:07:24.567Z,99502.98
2023-01-04T12:10:41.003Z,99496.42
2023-01-04T12:13:57.574Z,99490.16
2023-01-04T12:17:17.964Z,99478.57
2023-01-04T12:20:37.269Z,99476.09
2023-01-04T12:23:54.517Z,99469.00
2023-01-04T12:27:22.432Z,99444.52
2023-01-04T12:30:49.578Z,99437.27
2023-01-04T12:34:35.072Z,99429.47
2023-01-04T12:37:57.087Z,99418.07
2023-01-04T12:41:16.648Z,99407.49
2023-01-04T12:45:29.505Z,99397.89
2023-01-04T12:49:00.445Z,99400.25
2023-01-04T12:56:08.915Z,99387.68
2023-01-04T12:59:38.905Z,99386.86
2023-01-04T13:03:13.504Z,99384.88
2023-01-04T13:06:33.415Z,99364.56
2023-01-04T13:10:00.864Z,99354.67
2023-01-04T13:13:40.823Z,99351.18
2023-01-04T13:17:12.968Z,99328.23
2023-01-04T13:20:34.188Z,99322.94
2023-01-04T13:23:57.662Z,99335.31
2023-01-04T13:27:22.295Z,99320.59
2023-01-04T13:30:47.754Z,99323.40
2023-01-04T13:34:04.916Z,99307.83
2023-01-04T13:37:36.096Z,99297.58
2023-01-04T13:40:55.859Z,99294.41
2023-01-04T13:44:16.975Z,99289.42
2023-01-04T13:47:39.119Z,99285.28
2023-01-04T13:51:12.174Z,99276.66
2023-01-04T13:54:35.317Z,99272.65
2023-01-04T13:57:59.724Z,99271.02
2023-01-04T14:01:27.783Z,99270.50
2023-01-04T14:04:50.294Z,99262.41
2023-01-04T14:08:12.825Z,99256.44
2023-01-04T14:11:51.524Z,99243.22
2023-01-04T14:15:12.082Z,99243.38
2023-01-04T14:18:39.351Z,99238.26
2023-01-04T14:21:56.281Z,99230.33
2023-01-04T14:25:51.145Z,99233.95
2023-01-04T14:29:22.111Z,99223.02
2023-01-04T14:32:38.616Z,99218.72
2023-01-04T14:36:08.457Z,99211.77
2023-01-04T14:44:42.036Z,99172.92
2023-01-04T14:47:58.473Z,99188.94
2023-01-04T14:51:18.178Z,99189.23
2023-01-04T14:54:38.605Z,99178.83
2023-01-04T15:01:12.035Z,99166.08
2023-01-04T15:04:29.106Z,99171.36
2023-01-04T15:07:46.944Z,99161.48
2023-01-04T15:11:03.166Z,99151.89
2023-01-04T15:14:19.539Z,99151.73
2023-01-04T15:17:35.684Z,99135.74
2023-01-04T15:20:51.924Z,99140.18
2023-01-04T15:24:08.417Z,99114.73
2023-01-04T15:27:30.536Z,99120.02
2023-01-04T15:30:44.739Z,99113.76
2023-01-04T15:34:01.197Z,99121.69
2023-01-04T15:37:23.527Z,99106.67
2023-01-04T15:40:36.631Z,99100.55
2023-01-04T15:43:52.980Z,99078.77
2023-01-04T15:47:09.261Z,99075.44
2023-01-04T15:50:25.857Z,99072.80
2023-01-04T15:53:51.578Z,99075.73
2023-01-04T16:00:26.367Z,99069.81
2023-01-04T16:03:48.476Z,99062.19
2023-01-04T16:07:02.552Z,99050.13
2023-01-04T16:13:34.080Z,99057.06
2023-01-04T16:16:50.307Z,99038.74
2023-01-04T16:20:06.721Z,99046.67
2023-01-04T16:23:23.514Z,99043.18
2023-01-04T16:29:56.472Z,99033.46
2023-01-04T16:33:13.209Z,99021.91
2023-01-04T16:36:32.760Z,99015.14
2023-01-04T16:40:05.818Z,99017.91
2023-01-04T16:46:31.845Z,98995.13
2023-01-04T16:49:48.722Z,98987.20
2023-01-04T16:53:05.014Z,98979.61
2023-01-04T16:56:24.387Z,98969.73
2023-01-04T16:59:46.683Z,98969.86
2023-01-04T17:03:09.843Z,98967.39
2023-01-04T17:06:32.980Z,98976.64
2023-01-04T17:09:51.004Z,98968.58
2023-01-04T17:13:07.791Z,98958.15
2023-01-04T17:16:28.348Z,98953.72
2023-01-04T17:19:46.935Z,98947.59
2023-01-04T17:23:03.301Z,98938.03
2023-01-04T17:26:22.601Z,98922.83
2023-01-04T17:29:38.798Z,98902.55
2023-01-04T17:32:55.139Z,98880.10
2023-01-04T17:36:16.989Z,98853.34
2023-01-04T17:39:33.616Z,98875.15
2023-01-04T17:42:49.949Z,98874.50
2023-01-04T17:46:10.385Z,98876.16
2023-01-04T17:49:31.398Z,98872.36
2023-01-04T17:52:44.825Z,98856.51
2023-01-04T17:59:20.929Z,98838.02
2023-01-04T18:02:37.251Z,98831.08
2023-01-04T18:06:24.459Z,98814.24
2023-01-04T18:09:22.231Z,98827.95
2023-01-04T18:12:38.456Z,98822.98
2023-01-04T18:16:18.395Z,98812.59
2023-01-04T18:19:13.634Z,98821.51
2023-01-04T18:22:29.863Z,98821.51
2023-01-04T18:30:28.087Z,98791.95
2023-01-04T18:33:44.558Z,98813.58
2023-01-04T18:37:00.710Z,98795.58
2023-01-04T18:40:20.905Z,98789.13
2023-01-04T18:46:53.571Z,98767.03
2023-01-04T18:50:11.128Z,98769.50
2023-01-04T18:53:28.011Z,98772.14
2023-01-04T18:56:44.169Z,98753.83
2023-01-04T19:00:00.725Z,98736.32
2023-01-04T19:03:18.685Z,98730.20
2023-01-04T19:06:34.995Z,98719.80
2023-01-04T19:09:53.645Z,98731.18
2023-01-04T19:13:10.124Z,98732.20
2023-01-04T19:16:32.853Z,98735.83
2023-01-04T19:19:51.045Z,98738.30
2023-01-04T19:23:07.447Z,98737.98
2023-01-04T19:26:24.298Z,98729.88
2023-01-04T19:29:43.142Z,98728.54
2023-01-04T19:33:13.815Z,98718.81
2023-01-04T19:36:33.767Z,98723.11
2023-01-04T19:39:50.918Z,98731.36
2023-01-04T19:43:07.455Z,98729.21
2023-01-04T19:46:25.781Z,98728.69
2023-01-04T19:49:43.790Z,98713.67
2023-01-04T19:53:03.768Z,98708.04
2023-01-04T20:01:55.275Z,98690.70
2023-01-04T20:05:50.640Z,98683.27
2023-01-04T20:09:35.844Z,98686.54
2023-01-04T20:12:57.520Z,98682.77
2023-01-04T20:16:19.734Z,98674.66
2023-01-04T20:19:36.074Z,98670.84
2023-01-04T20:22:52.436Z,98662.91
2023-01-04T20:26:13.308Z,98648.86
2023-01-04T20:29:29.506Z,98638.66
2023-01-04T20:32:47.395Z,98639.95
2023-01-04T20:36:04.095Z,98629.38
2023-01-04T20:39:20.611Z,98631.52
2023-01-04T20:45:55.538Z,98630.97
2023-01-04T20:49:12.550Z,98638.09
2023-01-04T20:52:28.750Z,98631.64
2023-01-04T20:55:49.101Z,98627.16
2023-01-04T21:02:22.343Z,98630.64
2023-01-04T21:05:42.823Z,98612.77
2023-01-04T21:09:12.992Z,98614.42
2023-01-04T21:12:29.275Z,98607.33
2023-01-04T21:15:47.687Z,98609.61
2023-01-04T21:19:03.877Z,98608.80
2023-01-04T21:22:21.970Z,98604.98
2023-01-04T21:25:38.241Z,98603.15
2023-01-04T21:28:54.958Z,98604.47
2023-01-04T21:32:11.723Z,98595.36
2023-01-04T21:35:27.986Z,98591.88
2023-01-04T21:38:44.162Z,98588.23
2023-01-04T21:42:02.362Z,98591.55
2023-01-04T21:45:20.386Z,98578.31
2023-01-04T21:48:36.587Z,98570.54
2023-01-04T21:51:52.612Z,98562.60
2023-01-04T21:55:09.196Z,98555.70
2023-01-04T21:58:25.323Z,98550.22
2023-01-04T22:01:41.532Z,98532.05
2023-01-04T22:04:57.917Z,98534.88
2023-01-04T22:08:14.430Z,98528.12
2023-01-04T22:11:30.712Z,98524.66
2023-01-04T22:14:46.912Z,98524.30
2023-01-04T22:18:03.050Z,98516.08
2023-01-04T22:21:21.941Z,98500.21
2023-01-04T22:24:38.555Z,98507.15
2023-01-04T22:27:59.082Z,98503.51
2023-01-04T22:31:18.458Z,98492.75
2023-01-04T22:34:34.829Z,98497.05
2023-01-04T22:37:51.052Z,98479.16
2023-01-04T22:41:09.180Z,98480.99
2023-01-04T22:44:25.434Z,98466.25
2023-01-04T22:47:41.827Z,98469.89
2023-01-04T22:50:58.067Z,98467.88
2023-01-04T22:54:14.559Z,98465.08
2023-01-04T22:57:30.867Z,98467.34
2023-01-04T23:00:47.061Z,98465.08
2023-01-04T23:04:04.092Z,98466.53
2023-01-04T23:07:20.320Z,98465.36
2023-01-04T23:10:36.402Z,98468.34
2023-01-04T23:13:53.168Z,98453.03
2023-01-04T23:17:09.380Z,98447.89
2023-01-04T23:20:25.931Z,98440.52
2023-01-04T23:23:42.531Z,98424.66
2023-01-04T23:26:58.888Z,98425.28
2023-01-04T23:30:18.801Z,98423.63
2023-01-04T23:33:36.720Z,98420.55
2023-01-04T23:36:53.027Z,98407.33
2023-01-04T23:40:09.550Z,98408.66
2023-01-04T23:43:25.651Z,98406.55
2023-01-04T23:46:41.795Z,98409.38
2023-01-04T23:49:57.946Z,98393.23
2023-01-04T23:53:14.094Z,98384.02
2023-01-04T23:56:31.211Z,98385.36
2023-01-04T23:59:47.383Z,98379.45
